Time;durP1;ratioP1;P1;durP2;ratioP2;P2;SDS_P1;SDS_P2;PMS_P1;PMS_P2;Temp;Humidity;BMP_temperature;BMP_pressure;BME280_temperature;BME280_humidity;BME280_pressure;Samples;Min_cycle;Max_cycle;Signal;HPM_P1;HPM_P2
2023/07/12 00:00:27;;;;;;;17.63;4.68;;;19.30;99.90;;;;;;5134261;27;20096;-68
2023/07/12 00:02:54;;;;;;;22.48;5.03;;;20.20;99.90;;;;;;5133381;27;20498;-68
2023/07/12 00:05:21;;;;;;;15.38;5.00;;;19.90;99.90;;;;;;5112106;27;20059;-68
2023/07/12 00:07:48;;;;;;;22.25;4.85;;;;;;;;;;5099571;27;20039;-68
2023/07/12 00:10:22;;;;;;;22.77;5.40;;;20.90;99.90;;;;;;5128367;27;20070;-68
2023/07/12 00:12:48;;;;;;;23.85;5.43;;;20.20;99.20;;;;;;5111038;27;20031;-68
2023/07/12 00:15:28;;;;;;;20.25;4.32;;;19.20;99.90;;;;;;5121319;27;20035;-68
2023/07/12 00:17:54;;;;;;;23.98;4.78;;;18.90;99.90;;;;;;5117487;27;20058;-68
2023/07/12 00:20:34;;;;;;;20.88;4.15;;;19.20;99.90;;;;;;5129518;27;20066;-71
2023/07/12 00:23:00;;;;;;;19.23;4.30;;;20.20;99.40;;;;;;5126446;27;20327;-72
2023/07/12 00:25:32;;;;;;;19.77;4.50;;;20.10;99.90;;;;;;5129631;27;20026;-72
2023/07/12 00:28:00;;;;;;;19.58;4.00;;;20.10;99.80;;;;;;5124206;27;20067;-71
2023/07/12 00:30:33;;;;;;;17.77;4.10;;;20.60;99.90;;;;;;5124495;27;20023;-68
2023/07/12 00:33:03;;;;;;;18.73;4.35;;;;;;;;;;5117135;27;20062;-69
2023/07/12 00:35:30;;;;;;;18.30;3.67;;;20.00;99.70;;;;;;5131021;27;20035;-69
2023/07/12 00:38:00;;;;;;;15.43;4.13;;;20.70;99.90;;;;;;5129843;27;20035;-68
2023/07/12 00:40:41;;;;;;;20.52;4.20;;;19.70;98.60;;;;;;5131006;27;20078;-69
2023/07/12 00:43:39;;;;;;;17.90;4.40;;;20.00;99.90;;;;;;5126230;27;20038;-69
2023/07/12 00:46:31;;;;;;;20.50;3.65;;;19.10;99.90;;;;;;5108778;27;20047;-69
2023/07/12 00:48:57;;;;;;;24.98;4.55;;;18.60;99.90;;;;;;5128533;27;20043;-72
2023/07/12 00:51:39;;;;;;;19.73;4.72;;;20.70;99.90;;;;;;5127093;27;20042;-72
2023/07/12 00:54:14;;;;;;;15.70;4.40;;;19.40;98.70;;;;;;5119548;27;20074;-71
2023/07/12 00:56:40;;;;;;;16.83;4.13;;;;;;;;;;5120151;27;20056;-71
2023/07/12 00:59:29;;;;;;;19.02;4.50;;;19.40;99.90;;;;;;5128300;27;20622;-68
2023/07/12 01:02:00;;;;;;;19.02;4.45;;;19.60;99.80;;;;;;5126798;27;20054;-71
2023/07/12 01:04:32;;;;;;;21.58;4.38;;;20.00;99.90;;;;;;5127534;27;20070;-71
2023/07/12 01:06:58;;;;;;;17.98;4.78;;;;;;;;;;5120316;27;20531;-71
2023/07/12 01:09:26;;;;;;;23.52;4.60;;;20.10;99.90;;;;;;5125950;27;20035;-71
2023/07/12 01:11:53;;;;;;;20.13;5.25;;;18.30;99.90;;;;;;5123465;27;20047;-71
2023/07/12 01:14:19;;;;;;;24.20;4.65;;;;;;;;;;5119507;27;20042;-68
2023/07/12 01:16:53;;;;;;;20.83;4.72;;;19.80;99.90;;;;;;5115466;27;20428;-68
2023/07/12 01:19:19;;;;;;;27.77;5.18;;;20.30;99.90;;;;;;5126629;27;20035;-68
2023/07/12 01:21:49;;;;;;;27.50;5.38;;;20.00;99.90;;;;;;5132390;27;20470;-68
2023/07/12 01:24:15;;;;;;;27.63;5.30;;;19.30;99.90;;;;;;5118620;27;20063;-68
2023/07/12 01:26:44;;;;;;;32.75;5.75;;;19.20;99.90;;;;;;5118197;27;20057;-68
2023/07/12 01:29:11;;;;;;;19.17;5.25;;;20.20;99.90;;;;;;5096171;28;20044;-68
2023/07/12 01:31:37;;;;;;;28.33;6.32;;;;;;;;;;5118089;27;20071;-68
2023/07/12 01:34:03;;;;;;;25.77;6.63;;;20.30;99.90;;;;;;5122024;27;20031;-68
2023/07/12 01:36:31;;;;;;;41.50;6.05;;;20.20;99.90;;;;;;5096533;28;20122;-68
2023/07/12 01:38:58;;;;;;;31.20;5.68;;;19.70;99.90;;;;;;5113733;28;20036;-68
2023/07/12 01:41:24;;;;;;;26.40;5.38;;;;;;;;;;5128135;27;20043;-68
2023/07/12 01:43:50;;;;;;;24.95;6.15;;;;;;;;;;5100279;28;20490;-68
2023/07/12 01:46:17;;;;;;;33.45;6.25;;;;;;;;;;5106101;27;20046;-71
2023/07/12 01:48:43;;;;;;;28.40;5.63;;;19.70;99.90;;;;;;5125601;27;20089;-68
2023/07/12 01:51:10;;;;;;;26.23;6.07;;;19.50;99.90;;;;;;5127612;27;20047;-68
2023/07/12 01:53:36;;;;;;;39.30;6.43;;;;;;;;;;5115362;28;20046;-68
2023/07/12 01:56:03;;;;;;;35.95;6.35;;;18.20;99.90;;;;;;5115894;28;20039;-68
2023/07/12 01:58:30;;;;;;;25.58;5.88;;;;;;;;;;5128445;28;20067;-67
2023/07/12 02:00:56;;;;;;;39.60;6.43;;;19.50;99.90;;;;;;5112045;28;20043;-68
2023/07/12 02:03:22;;;;;;;23.30;5.45;;;19.60;99.90;;;;;;5113720;28;20117;-68
2023/07/12 02:05:48;;;;;;;31.58;5.97;;;19.60;99.90;;;;;;5119511;28;20056;-67
2023/07/12 02:08:14;;;;;;;27.20;6.30;;;18.60;99.90;;;;;;5112043;28;20475;-68
2023/07/12 02:10:41;;;;;;;31.10;6.88;;;17.90;99.90;;;;;;5114841;28;20484;-68
2023/07/12 02:13:07;;;;;;;33.15;7.00;;;;;;;;;;5113194;28;20036;-68
2023/07/12 02:15:33;;;;;;;31.98;6.57;;;;;;;;;;5128127;28;20108;-67
2023/07/12 02:18:00;;;;;;;23.60;5.72;;;19.30;99.90;;;;;;5130489;28;20043;-68
2023/07/12 02:20:26;;;;;;;32.28;6.13;;;19.80;99.90;;;;;;5115410;28;20058;-68
2023/07/12 02:22:52;;;;;;;41.65;7.13;;;18.80;99.90;;;;;;5100173;28;20483;-68
2023/07/12 02:25:20;;;;;;;30.65;6.38;;;19.20;99.90;;;;;;5087601;28;20473;-67
2023/07/12 02:27:46;;;;;;;36.38;6.53;;;17.80;99.90;;;;;;5110483;28;20047;-68
2023/07/12 02:30:16;;;;;;;39.78;7.00;;;19.10;99.90;;;;;;5120411;27;20427;-68
2023/07/12 02:32:43;;;;;;;31.08;5.93;;;17.80;99.90;;;;;;5113356;28;20514;-68
2023/07/12 02:35:09;;;;;;;31.58;6.03;;;19.70;99.90;;;;;;5113390;28;20445;-67
2023/07/12 02:37:35;;;;;;;40.38;6.80;;;;;;;;;;5126621;28;20047;-67
2023/07/12 02:40:02;;;;;;;38.72;7.13;;;19.90;99.90;;;;;;5118371;28;20382;-67
2023/07/12 02:42:28;;;;;;;47.33;6.95;;;19.60;99.90;;;;;;5103231;28;20035;-68
2023/07/12 02:44:54;;;;;;;27.77;5.97;;;19.80;99.90;;;;;;5117703;28;20047;-68
2023/07/12 02:47:20;;;;;;;34.55;6.80;;;;;;;;;;5126984;28;20044;-68
2023/07/12 02:49:45;;;;;;;40.70;6.70;;;18.60;99.90;;;;;;5116308;28;20075;-68
2023/07/12 02:52:12;;;;;;;33.53;6.78;;;;;;;;;;5106172;28;20074;-68
2023/07/12 02:54:38;;;;;;;28.73;6.30;;;;;;;;;;5122927;28;20069;-68
2023/07/12 02:57:04;;;;;;;39.78;7.28;;;17.70;99.90;;;;;;5111670;28;20446;-68
2023/07/12 02:59:31;;;;;;;34.65;7.03;;;17.70;99.90;;;;;;5098688;27;20051;-68
2023/07/12 03:01:57;;;;;;;38.13;7.25;;;;;;;;;;5115432;27;20063;-68
2023/07/12 03:04:23;;;;;;;38.55;7.13;;;17.80;99.90;;;;;;5128652;27;20099;-68
2023/07/12 03:06:49;;;;;;;24.35;6.35;;;;;;;;;;5115534;27;20126;-68
2023/07/12 03:09:15;;;;;;;34.13;6.50;;;;;;;;;;5115149;27;20054;-72
2023/07/12 03:11:44;;;;;;;35.75;6.70;;;19.20;99.90;;;;;;5121101;27;20049;-72
2023/07/12 03:14:10;;;;;;;30.33;6.90;;;18.30;99.90;;;;;;5126130;27;20046;-72
2023/07/12 03:16:36;;;;;;;30.13;6.28;;;;;;;;;;5122977;27;20039;-72
2023/07/12 03:19:02;;;;;;;32.13;6.35;;;;;;;;;;5104868;27;20039;-71
2023/07/12 03:21:29;;;;;;;29.83;6.72;;;;;;;;;;5121352;27;20043;-71
2023/07/12 03:23:54;;;;;;;28.13;7.05;;;19.40;99.90;;;;;;5113772;28;20108;-71
2023/07/12 03:26:20;;;;;;;36.22;7.15;;;;;;;;;;5123047;27;20488;-71
2023/07/12 03:28:46;;;;;;;38.88;6.95;;;;;;;;;;5113790;28;20389;-71
2023/07/12 03:31:15;;;;;;;32.10;6.38;;;18.90;99.90;;;;;;5102920;27;20050;-71
2023/07/12 03:33:43;;;;;;;33.17;6.35;;;17.70;99.90;;;;;;5112983;27;20047;-72
2023/07/12 03:36:09;;;;;;;28.33;6.45;;;17.70;99.90;;;;;;5125918;27;20170;-71
2023/07/12 03:38:35;;;;;;;42.67;6.60;;;;;;;;;;5133431;27;20111;-72
2023/07/12 03:41:06;;;;;;;34.88;6.80;;;17.60;99.90;;;;;;5122433;27;20039;-71
2023/07/12 03:43:33;;;;;;;31.45;6.32;;;19.10;99.90;;;;;;5116001;27;20049;-71
2023/07/12 03:45:59;;;;;;;29.23;6.15;;;18.30;99.90;;;;;;5121542;27;20114;-72
2023/07/12 03:48:25;;;;;;;39.15;7.25;;;18.80;99.90;;;;;;5107956;27;20167;-71
2023/07/12 03:50:54;;;;;;;39.80;7.10;;;18.60;99.90;;;;;;5128600;27;20089;-71
2023/07/12 03:53:21;;;;;;;32.65;6.53;;;18.20;99.90;;;;;;5129971;27;20031;-71
2023/07/12 03:55:47;;;;;;;30.05;6.35;;;18.70;99.90;;;;;;5126360;27;20038;-71
2023/07/12 03:58:17;;;;;;;33.13;6.32;;;18.70;99.90;;;;;;5126571;27;20027;-72
2023/07/12 04:00:46;;;;;;;31.80;6.47;;;19.80;99.90;;;;;;5117429;27;20178;-71
2023/07/12 04:03:12;;;;;;;39.22;6.97;;;;;;;;;;5117249;27;20024;-71
2023/07/12 04:05:40;;;;;;;37.63;7.05;;;21.10;99.90;;;;;;5124453;27;20088;-71
2023/07/12 04:08:07;;;;;;;45.85;6.90;;;19.20;99.90;;;;;;5118777;27;20169;-71
2023/07/12 04:10:33;;;;;;;34.33;6.25;;;19.10;99.90;;;;;;5125605;27;20100;-72
2023/07/12 04:12:59;;;;;;;32.95;6.43;;;17.70;99.90;;;;;;5130247;27;20032;-71
2023/07/12 04:15:25;;;;;;;46.72;7.32;;;19.30;99.90;;;;;;5124172;27;20043;-71
2023/07/12 04:17:51;;;;;;;43.60;7.18;;;;;;;;;;5124947;27;20031;-71
2023/07/12 04:20:17;;;;;;;39.83;7.30;;;19.60;99.90;;;;;;5123856;27;20036;-71
2023/07/12 04:22:43;;;;;;;50.30;8.75;;;;;;;;;;5116397;27;20049;-72
2023/07/12 04:25:10;;;;;;;42.53;8.25;;;19.40;99.90;;;;;;5108264;27;20057;-72
2023/07/12 04:27:37;;;;;;;47.45;8.85;;;17.90;99.90;;;;;;5118663;27;20043;-71
2023/07/12 04:30:11;;;;;;;31.45;7.28;;;17.40;99.90;;;;;;5113530;27;20071;-73
2023/07/12 04:32:37;;;;;;;33.30;7.25;;;;;;;;;;5115873;27;20036;-72
2023/07/12 04:35:03;;;;;;;34.65;7.65;;;17.80;99.90;;;;;;5117466;27;20528;-72
2023/07/12 04:37:30;;;;;;;51.70;9.23;;;17.50;99.90;;;;;;5123083;27;20063;-69
2023/07/12 04:39:55;;;;;;;38.63;8.57;;;19.00;99.90;;;;;;5122700;27;20130;-68
2023/07/12 04:42:22;;;;;;;52.95;7.93;;;;;;;;;;5124013;27;20131;-69
2023/07/12 04:44:48;;;;;;;40.28;7.65;;;19.60;99.90;;;;;;5113853;27;20043;-69
2023/07/12 04:47:17;;;;;;;34.58;7.13;;;18.70;99.90;;;;;;5099618;27;20084;-69
2023/07/12 04:49:43;;;;;;;43.60;7.45;;;18.80;99.90;;;;;;5126014;27;20058;-69
2023/07/12 04:52:12;;;;;;;38.33;8.30;;;18.10;99.90;;;;;;5123260;27;20484;-68
2023/07/12 04:54:42;;;;;;;50.50;8.98;;;18.80;99.90;;;;;;5119229;27;20070;-68
2023/07/12 04:57:09;;;;;;;35.58;7.63;;;18.90;99.90;;;;;;5115467;27;20122;-68
2023/07/12 04:59:36;;;;;;;47.55;7.85;;;18.30;99.90;;;;;;5120347;27;20047;-68
2023/07/12 05:02:02;;;;;;;38.45;7.60;;;19.50;99.90;;;;;;5106391;27;20118;-68
2023/07/12 05:04:28;;;;;;;48.08;7.18;;;17.50;99.90;;;;;;5132417;27;20054;-68
2023/07/12 05:06:54;;;;;;;37.47;7.43;;;;;;;;;;5125603;27;20372;-68
2023/07/12 05:09:20;;;;;;;48.35;8.45;;;19.40;99.90;;;;;;5127398;27;20049;-68
2023/07/12 05:11:51;;;;;;;38.15;7.28;;;18.50;99.90;;;;;;5117068;27;20402;-68
2023/07/12 05:14:17;;;;;;;47.00;8.70;;;17.50;99.90;;;;;;5126680;27;20050;-69
2023/07/12 05:16:43;;;;;;;49.75;7.65;;;;;;;;;;5126757;27;20047;-67
2023/07/12 05:19:09;;;;;;;44.00;7.95;;;18.70;99.90;;;;;;5127008;27;20039;-68
2023/07/12 05:21:34;;;;;;;37.85;7.70;;;19.20;99.90;;;;;;5125557;27;20057;-68
2023/07/12 05:24:00;;;;;;;44.97;8.50;;;19.20;99.90;;;;;;5118663;27;20519;-68
2023/07/12 05:26:26;;;;;;;38.22;8.32;;;;;;;;;;5115910;27;20513;-68
2023/07/12 05:28:52;;;;;;;45.03;7.43;;;17.70;99.90;;;;;;5109075;27;20088;-68
2023/07/12 05:31:18;;;;;;;37.92;7.55;;;17.90;99.90;;;;;;5115773;27;20497;-68
2023/07/12 05:33:46;;;;;;;33.97;7.63;;;18.70;99.90;;;;;;5117947;27;20043;-67
2023/07/12 05:36:14;;;;;;;42.65;7.38;;;19.80;99.90;;;;;;5125212;27;20114;-68
2023/07/12 05:38:41;;;;;;;36.83;8.00;;;19.80;99.90;;;;;;5124364;27;20047;-67
2023/07/12 05:41:07;;;;;;;49.15;7.65;;;18.00;99.90;;;;;;5116959;27;20050;-69
2023/07/12 05:43:36;;;;;;;47.65;8.15;;;;;;;;;;5115714;27;20035;-68
2023/07/12 05:46:03;;;;;;;36.03;7.78;;;18.90;99.90;;;;;;5132458;27;20031;-69
2023/07/12 05:48:29;;;;;;;41.20;7.85;;;18.00;99.90;;;;;;5115689;27;20432;-69
2023/07/12 05:50:58;;;;;;;40.72;8.10;;;19.10;99.90;;;;;;5118029;27;20035;-69
2023/07/12 05:53:23;;;;;;;41.83;8.65;;;19.60;99.90;;;;;;5136102;27;20043;-69
2023/07/12 05:55:54;;;;;;;42.90;8.13;;;19.80;99.90;;;;;;5134908;27;20030;-69
2023/07/12 05:58:20;;;;;;;36.23;7.43;;;;;;;;;;5123350;28;20035;-69
2023/07/12 06:00:47;;;;;;;47.83;7.43;;;;;;;;;;5115999;27;20505;-69
2023/07/12 06:03:13;;;;;;;43.95;7.35;;;;;;;;;;5124068;27;20039;-68
2023/07/12 06:05:44;;;;;;;36.22;8.65;;;19.00;99.90;;;;;;5135904;27;20047;-68
2023/07/12 06:08:10;;;;;;;39.72;8.68;;;19.10;99.90;;;;;;5136191;27;20038;-68
2023/07/12 06:10:36;;;;;;;46.33;9.05;;;;;;;;;;5115786;28;20119;-69
2023/07/12 06:13:02;;;;;;;38.53;8.30;;;;;;;;;;5115534;28;20149;-67
2023/07/12 06:15:28;;;;;;;22.15;6.90;;;;;;;;;;5116068;27;20078;-69
2023/07/12 06:17:54;;;;;;;17.58;6.38;;;19.40;99.90;;;;;;5118895;27;20099;-69
2023/07/12 06:20:20;;;;;;;27.90;7.05;;;;;;;;;;5135710;27;20050;-70
2023/07/12 06:22:46;;;;;;;28.92;6.85;;;18.60;99.90;;;;;;5135868;27;20038;-69
2023/07/12 06:25:12;;;;;;;32.40;8.05;;;;;;;;;;5136158;27;20046;-69
2023/07/12 06:27:38;;;;;;;42.05;7.85;;;;;;;;;;5135724;27;20034;-69
2023/07/12 06:30:04;;;;;;;48.95;9.00;;;18.10;99.90;;;;;;5135785;27;20031;-69
2023/07/12 06:32:30;;;;;;;41.85;7.93;;;;;;;;;;5135391;27;20041;-69
2023/07/12 06:34:56;;;;;;;43.17;9.07;;;;;;;;;;5128600;27;20050;-69
2023/07/12 06:37:22;;;;;;;34.38;8.38;;;;;;;;;;5148563;27;20044;-69
2023/07/12 06:39:48;;;;;;;43.33;9.30;;;17.60;99.90;;;;;;5119623;27;20498;-69
2023/07/12 06:42:14;;;;;;;47.78;9.23;;;18.10;99.90;;;;;;5118746;27;20047;-69
2023/07/12 06:44:40;;;;;;;52.22;9.90;;;;;;;;;;5106805;27;20031;-69
2023/07/12 06:47:06;;;;;;;49.28;9.57;;;18.40;99.90;;;;;;5121928;27;20073;-70
2023/07/12 06:49:32;;;;;;;47.58;9.43;;;;;;;;;;5106193;27;20062;-69
2023/07/12 06:51:58;;;;;;;31.45;7.35;;;18.40;99.90;;;;;;5119283;27;20386;-69
2023/07/12 06:54:24;;;;;;;19.90;6.15;;;19.10;99.90;;;;;;5104871;27;20035;-70
2023/07/12 06:56:50;;;;;;;20.08;4.43;;;;;;;;;;5132627;27;20118;-70
2023/07/12 06:59:16;;;;;;;15.40;4.63;;;;;;;;;;5101231;27;20092;-69
2023/07/12 07:01:42;;;;;;;15.68;3.80;;;18.20;99.90;;;;;;5124540;27;20082;-70
2023/07/12 07:04:08;;;;;;;10.43;3.55;;;;;;;;;;5128232;27;20027;-69
2023/07/12 07:06:34;;;;;;;25.30;5.45;;;;;;;;;;5128414;27;20051;-74
2023/07/12 07:09:00;;;;;;;21.52;6.63;;;18.70;99.90;;;;;;5108567;27;20042;-75
2023/07/12 07:11:25;;;;;;;24.45;5.80;;;16.90;99.90;;;;;;5114684;27;20394;-75
2023/07/12 07:13:51;;;;;;;27.73;5.82;;;;;;;;;;5129615;27;20043;-75
2023/07/12 07:16:17;;;;;;;22.45;5.45;;;17.90;99.90;;;;;;5120822;27;20509;-74
2023/07/12 07:18:44;;;;;;;19.67;4.47;;;16.50;99.90;;;;;;5127093;27;20031;-75
2023/07/12 07:21:10;;;;;;;22.10;5.10;;;18.00;99.90;;;;;;5128416;27;20035;-75
2023/07/12 07:23:36;;;;;;;22.45;5.53;;;;;;;;;;5123340;27;20521;-70
2023/07/12 07:26:07;;;;;;;30.50;6.47;;;17.50;99.90;;;;;;5108680;27;20042;-69
2023/07/12 07:28:33;;;;;;;34.58;6.28;;;;;;;;;;5134050;27;20038;-75
2023/07/12 07:31:00;;;;;;;27.00;5.88;;;;;;;;;;5131817;27;20031;-75
2023/07/12 07:33:27;;;;;;;24.25;6.35;;;17.90;99.90;;;;;;5108970;27;20125;-76
2023/07/12 07:35:53;;;;;;;28.00;7.38;;;;;;;;;;5126237;27;20429;-75
2023/07/12 07:38:21;;;;;;;32.15;6.93;;;;;;;;;;5138078;27;20041;-76
2023/07/12 07:40:47;;;;;;;35.88;6.70;;;;;;;;;;5138121;27;20047;-75
2023/07/12 07:43:14;;;;;;;28.60;6.97;;;18.30;99.90;;;;;;5137792;27;20035;-76
2023/07/12 07:45:41;;;;;;;25.92;6.38;;;19.30;99.90;;;;;;5118019;27;20108;-77
2023/07/12 07:48:07;;;;;;;31.95;6.10;;;;;;;;;;5117687;27;20042;-76
2023/07/12 07:50:33;;;;;;;27.85;6.10;;;;;;;;;;5130445;27;20462;-76
2023/07/12 07:52:59;;;;;;;26.30;6.68;;;;;;;;;;5120887;27;20121;-76
2023/07/12 07:55:26;;;;;;;23.08;6.20;;;;;;;;;;5133076;27;20154;-76
2023/07/12 07:57:52;;;;;;;27.70;6.13;;;;;;;;;;5116155;27;20050;-76
2023/07/12 08:00:18;;;;;;;27.65;6.50;;;19.80;99.90;;;;;;5100417;27;20043;-77
2023/07/12 08:02:45;;;;;;;21.95;5.65;;;;;;;;;;5117548;27;20035;-70
2023/07/12 08:05:12;;;;;;;23.73;6.82;;;18.90;99.90;;;;;;5117282;27;20049;-70
2023/07/12 08:07:43;;;;;;;34.30;6.47;;;18.90;99.90;;;;;;5117406;27;20039;-70
2023/07/12 08:10:12;;;;;;;17.10;6.35;;;19.50;99.90;;;;;;5100909;27;20031;-70
2023/07/12 08:12:38;;;;;;;24.00;6.40;;;18.30;99.90;;;;;;5117385;27;20053;-70
2023/07/12 08:15:04;;;;;;;28.75;6.90;;;17.90;99.90;;;;;;5117534;27;20416;-76
2023/07/12 08:17:30;;;;;;;24.60;5.78;;;19.10;99.90;;;;;;5117470;27;20480;-74
2023/07/12 08:19:57;;;;;;;20.33;6.57;;;;;;;;;;5109726;27;20046;-72
2023/07/12 08:22:23;;;;;;;31.70;6.63;;;19.30;99.90;;;;;;5146646;27;20046;-72
2023/07/12 08:24:49;;;;;;;40.25;7.47;;;;;;;;;;5126091;27;20035;-71
2023/07/12 08:27:17;;;;;;;30.90;7.38;;;;;;;;;;5116173;27;20434;-71
2023/07/12 08:29:44;;;;;;;32.42;6.70;;;;;;;;;;5131646;27;20359;-71
2023/07/12 08:32:11;;;;;;;29.50;7.28;;;19.90;99.90;;;;;;5117030;27;20118;-77
2023/07/12 08:34:37;;;;;;;26.85;6.50;;;18.70;99.90;;;;;;5130463;27;20043;-77
2023/07/12 08:37:03;;;;;;;31.90;6.70;;;20.00;99.90;;;;;;5117203;27;20047;-77
2023/07/12 08:39:30;;;;;;;29.67;7.38;;;19.10;99.90;;;;;;5131120;27;20111;-71
2023/07/12 08:41:56;;;;;;;23.13;6.47;;;;;;;;;;5137322;27;20482;-71
2023/07/12 08:44:23;;;;;;;24.90;6.53;;;19.60;99.90;;;;;;5137412;27;20114;-71
2023/07/12 08:46:57;;;;;;;19.70;6.53;;;20.20;99.90;;;;;;5137453;27;20512;-77
2023/07/12 08:49:24;;;;;;;27.33;6.82;;;18.40;99.90;;;;;;5136906;27;20402;-77
2023/07/12 08:51:57;;;;;;;22.70;6.72;;;19.50;99.90;;;;;;5102415;27;20070;-77
2023/07/12 08:54:25;;;;;;;13.45;6.00;;;19.40;99.90;;;;;;5099566;27;20046;-78
2023/07/12 08:57:07;;;;;;;18.60;6.13;;;19.60;99.90;;;;;;5116040;27;20066;-78
2023/07/12 08:59:33;;;;;;;25.13;6.25;;;;;;;;;;5149809;27;20122;-78
2023/07/12 09:02:03;;;;;;;17.02;5.57;;;19.60;99.90;;;;;;5136647;27;20049;-78
2023/07/12 09:04:33;;;;;;;19.55;5.70;;;19.10;99.90;;;;;;5136720;27;20049;-77
2023/07/12 09:07:07;;;;;;;20.77;6.47;;;20.40;99.90;;;;;;5136792;27;20118;-78
2023/07/12 09:09:38;;;;;;;26.83;6.95;;;19.80;99.90;;;;;;5120420;27;20039;-77
2023/07/12 09:12:07;;;;;;;23.33;6.72;;;20.60;99.90;;;;;;5112209;27;20106;-77
2023/07/12 09:14:36;;;;;;;15.90;6.72;;;19.70;99.90;;;;;;5136286;27;20078;-77
2023/07/12 09:17:02;;;;;;;25.70;6.80;;;19.90;99.90;;;;;;5127524;27;20039;-76
2023/07/12 09:19:36;;;;;;;16.83;6.05;;;20.60;99.90;;;;;;5126905;27;20035;-77
2023/07/12 09:22:13;;;;;;;20.08;6.38;;;19.70;99.90;;;;;;5129363;27;20042;-78
2023/07/12 09:24:43;;;;;;;18.60;5.80;;;20.80;99.90;;;;;;5116368;27;20100;-78
2023/07/12 09:27:18;;;;;;;21.10;5.97;;;19.20;99.90;;;;;;5108671;27;20450;-71
2023/07/12 09:29:44;;;;;;;13.52;4.78;;;;;;;;;;5122461;27;20080;-72
2023/07/12 09:32:19;;;;;;;12.15;5.47;;;19.70;99.90;;;;;;5099640;27;20479;-71
2023/07/12 09:34:47;;;;;;;20.20;5.15;;;19.30;99.90;;;;;;5101986;27;20043;-72
2023/07/12 09:37:24;;;;;;;17.33;5.40;;;19.60;99.90;;;;;;5122456;27;20050;-71
2023/07/12 09:40:00;;;;;;;14.27;5.45;;;20.20;99.90;;;;;;5118248;27;20175;-71
2023/07/12 09:42:30;;;;;;;17.73;5.95;;;19.60;99.90;;;;;;5118516;27;20125;-71
2023/07/12 09:44:57;;;;;;;13.32;5.00;;;19.60;99.90;;;;;;5103142;27;20412;-70
2023/07/12 09:47:53;;;;;;;19.27;5.82;;;21.20;99.90;;;;;;5104504;27;20356;-71
2023/07/12 09:50:30;;;;;;;19.27;5.40;;;21.50;99.90;;;;;;5134378;27;20079;-71
2023/07/12 09:52:56;;;;;;;25.23;6.35;;;;;;;;;;5130403;27;20407;-70
2023/07/12 09:55:35;;;;;;;19.60;5.55;;;20.50;99.90;;;;;;5117651;27;20035;-71
2023/07/12 09:58:46;;;;;;;16.85;4.93;;;21.00;98.20;;;;;;5122136;27;20035;-71
2023/07/12 10:01:36;;;;;;;18.15;4.85;;;21.50;99.90;;;;;;5078780;27;20092;-71
2023/07/12 10:04:37;;;;;;;15.30;5.00;;;21.00;99.90;;;;;;5127104;27;20746;-70
2023/07/12 10:07:21;;;;;;;24.63;4.80;;;20.50;99.40;;;;;;5101907;27;20055;-71
2023/07/12 10:09:48;;;;;;;21.10;4.43;;;21.70;99.50;;;;;;5123636;27;20035;-77
2023/07/12 10:12:14;;;;;;;20.90;4.63;;;;;;;;;;5107995;27;20035;-77
2023/07/12 10:14:42;;;;;;;14.85;3.95;;;21.30;97.40;;;;;;5119562;27;20035;-77
2023/07/12 10:17:24;;;;;;;18.40;3.97;;;21.50;96.30;;;;;;5133739;27;20129;-77
2023/07/12 10:19:53;;;;;;;;;;;21.50;97.60;;;;;;5134948;27;20497;-76
2023/07/12 10:22:40;;;;;;;12.45;3.92;;;21.60;99.90;;;;;;5104818;27;19927;-77
2023/07/12 10:25:31;;;;;;;13.05;4.80;;;21.90;96.90;;;;;;5120172;27;20039;-76
2023/07/12 10:28:12;;;;;;;18.55;4.15;;;21.60;99.90;;;;;;5121434;27;20107;-77
2023/07/12 10:30:40;;;;;;;16.17;4.28;;;22.60;99.90;;;;;;5130242;27;20046;-76
2023/07/12 10:33:17;;;;;;;17.90;3.90;;;19.80;94.70;;;;;;5137600;27;20089;-69
2023/07/12 10:35:55;;;;;;;15.82;3.40;;;22.60;96.40;;;;;;5135659;27;20035;-69
2023/07/12 10:38:22;;;;;;;12.00;3.38;;;;;;;;;;5131284;27;20081;-69
2023/07/12 10:41:13;;;;;;;13.38;4.75;;;21.80;99.90;;;;;;5102638;27;20479;-69
2023/07/12 10:43:48;;;;;;;19.05;4.70;;;21.70;95.10;;;;;;5116783;27;20042;-70
2023/07/12 10:46:32;;;;;;;14.23;3.75;;;21.60;96.90;;;;;;5117121;27;20035;-70
2023/07/12 10:49:02;;;;;;;18.88;4.18;;;21.50;96.30;;;;;;5134992;27;20043;-69
2023/07/12 10:51:37;;;;;;;18.10;4.13;;;22.10;99.90;;;;;;5120682;27;20491;-69
2023/07/12 10:54:05;;;;;;;16.92;4.30;;;21.80;96.10;;;;;;5126019;27;20050;-69
2023/07/12 10:56:37;;;;;;;14.27;3.60;;;22.30;99.90;;;;;;5104298;27;20035;-69
2023/07/12 10:59:24;;;;;;;14.23;3.17;;;21.70;95.30;;;;;;5120104;27;20180;-69
2023/07/12 11:01:54;;;;;;;13.48;3.40;;;21.40;94.40;;;;;;5118023;27;20110;-71
2023/07/12 11:04:46;;;;;;;11.85;3.10;;;22.20;99.90;;;;;;5118646;27;20046;-69
2023/07/12 11:07:12;;;;;;;20.45;4.15;;;21.50;99.90;;;;;;5108362;27;20137;-69
2023/07/12 11:09:47;;;;;;;12.02;3.40;;;21.60;94.40;;;;;;5106507;27;20035;-70
2023/07/12 11:12:25;;;;;;;19.70;4.20;;;21.60;99.90;;;;;;5139376;27;20429;-70
2023/07/12 11:14:52;;;;;;;15.02;4.22;;;21.90;94.60;;;;;;5136872;27;20060;-69
2023/07/12 11:17:21;;;;;;;18.40;4.07;;;22.10;94.80;;;;;;5154334;27;20046;-70
2023/07/12 11:20:10;;;;;;;14.45;3.90;;;22.20;94.50;;;;;;5146312;27;20031;-70
2023/07/12 11:22:56;;;;;;;14.80;3.35;;;22.50;93.50;;;;;;5153527;27;20398;-70
2023/07/12 11:25:44;;;;;;;14.80;3.90;;;22.70;94.70;;;;;;5148953;27;20102;-71
2023/07/12 11:28:13;;;;;;;12.38;4.15;;;22.40;98.40;;;;;;5087917;27;20398;-70
2023/07/12 11:30:41;;;;;;;17.65;3.58;;;21.70;94.80;;;;;;5121907;27;20165;-69
2023/07/12 11:33:07;;;;;;;12.32;3.60;;;;;;;;;;5101091;27;20394;-70
2023/07/12 11:35:51;;;;;;;12.35;3.40;;;22.50;92.80;;;;;;5136434;27;20039;-69
2023/07/12 11:38:25;;;;;;;15.68;4.05;;;22.80;92.30;;;;;;5128136;27;20046;-70
2023/07/12 11:40:54;;;;;;;20.85;3.58;;;23.10;98.00;;;;;;5139993;27;20363;-70
2023/07/12 11:43:23;;;;;;;11.73;3.20;;;22.70;92.00;;;;;;5110544;27;20631;-70
2023/07/12 11:45:54;;;;;;;15.10;4.28;;;23.30;94.60;;;;;;5145958;27;20031;-69
2023/07/12 11:48:21;;;;;;;22.50;3.38;;;22.70;92.50;;;;;;5117751;27;20116;-69
2023/07/12 11:50:49;;;;;;;15.02;2.70;;;21.80;97.60;;;;;;5101850;27;20050;-70
2023/07/12 11:53:16;;;;;;;17.65;3.70;;;22.70;92.60;;;;;;5146781;27;20078;-70
2023/07/12 11:55:42;;;;;;;13.32;3.10;;;23.50;95.20;;;;;;5145097;27;20035;-69
2023/07/12 11:58:22;;;;;;;18.45;4.82;;;23.20;91.40;;;;;;5125132;27;20111;-69
2023/07/12 12:00:49;;;;;;;15.00;2.63;;;23.00;91.70;;;;;;5138709;27;20039;-69
2023/07/12 12:03:17;;;;;;;14.98;2.80;;;23.20;92.90;;;;;;5138235;27;20054;-68
2023/07/12 12:05:44;;;;;;;11.82;3.20;;;22.30;94.30;;;;;;5149425;27;20057;-68
2023/07/12 12:08:23;;;;;;;13.38;3.05;;;22.80;90.80;;;;;;5145106;27;20047;-69
2023/07/12 12:10:50;;;;;;;18.30;3.63;;;23.40;92.90;;;;;;5137812;27;20492;-69
2023/07/12 12:13:19;;;;;;;17.60;2.70;;;23.30;96.20;;;;;;5142744;27;20034;-69
2023/07/12 12:16:04;;;;;;;14.40;2.75;;;23.00;90.30;;;;;;5140742;27;20083;-69
2023/07/12 12:18:32;;;;;;;10.68;3.50;;;23.60;96.40;;;;;;5143009;27;20081;-69
2023/07/12 12:21:14;;;;;;;9.35;2.58;;;23.70;96.60;;;;;;5112474;27;20062;-69
2023/07/12 12:23:42;;;;;;;14.00;3.45;;;23.10;91.30;;;;;;5129584;27;20156;-69
2023/07/12 12:26:22;;;;;;;9.65;2.92;;;23.70;93.90;;;;;;5140349;27;20031;-69
2023/07/12 12:29:16;;;;;;;15.95;3.50;;;23.70;95.60;;;;;;5137672;27;20114;-69
2023/07/12 12:31:56;;;;;;;22.85;4.25;;;22.80;90.60;;;;;;5139534;27;20049;-70
2023/07/12 12:34:26;;;;;;;9.65;2.90;;;22.40;95.10;;;;;;5120915;27;20493;-69
2023/07/12 12:37:09;;;;;;;12.73;3.13;;;23.00;92.10;;;;;;5120618;27;20035;-69
2023/07/12 12:39:35;;;;;;;13.60;3.00;;;22.90;94.90;;;;;;5116705;27;20039;-69
2023/07/12 12:42:18;;;;;;;11.32;3.17;;;23.00;90.30;;;;;;5116771;27;20047;-69
2023/07/12 12:44:44;;;;;;;10.43;3.13;;;;;;;;;;5128216;27;20134;-69
2023/07/12 12:47:19;;;;;;;15.95;3.42;;;22.30;95.50;;;;;;5104872;27;20066;-69
2023/07/12 12:49:45;;;;;;;9.00;2.92;;;23.20;95.10;;;;;;5153053;27;20586;-69
2023/07/12 12:52:32;;;;;;;14.77;3.38;;;23.50;95.30;;;;;;5153413;27;20416;-69
2023/07/12 12:55:09;;;;;;;10.38;3.58;;;23.80;93.10;;;;;;5135290;27;20375;-69
2023/07/12 12:57:36;;;;;;;16.83;3.20;;;23.40;88.90;;;;;;5149562;27;20039;-69
2023/07/12 13:00:20;;;;;;;12.32;4.00;;;24.10;93.30;;;;;;5134923;27;20122;-69
2023/07/12 13:02:47;;;;;;;12.05;3.72;;;23.50;88.60;;;;;;5150131;27;20042;-69
2023/07/12 13:05:16;;;;;;;13.60;3.25;;;24.00;89.40;;;;;;5121270;27;20058;-69
2023/07/12 13:07:44;;;;;;;15.02;3.25;;;24.20;92.90;;;;;;5115126;27;20042;-69
2023/07/12 13:10:16;;;;;;;13.20;3.20;;;23.40;92.90;;;;;;5100267;27;20089;-69
2023/07/12 13:12:43;;;;;;;9.82;3.28;;;23.50;85.70;;;;;;5139973;27;20466;-69
2023/07/12 13:15:17;;;;;;;11.45;3.20;;;23.10;92.70;;;;;;5134549;27;20049;-69